Terminal Aerodrome Forecast
Issued by NWS

Home | Current Version | Previous Version | Graphics & Text | Print | Product List | Glossary On
Versions: 1 2 3 4 5 6 7 8 9 10 11 12
594
FTUS43 KFGF 171133
TAFBJI
TAF
KBJI 171133Z 1712/1812 15004KT 5SM BR SKC
     FM171500 18007KT P6SM SKC
     FM172200 24007KT P6SM FEW250
     FM180200 27009KT P6SM FEW130=

USA.gov is the U.S. government's official web portal to all federal, state and local government web resources and services.